Time;durP1;ratioP1;P1;durP2;ratioP2;P2;SDS_P1;SDS_P2;PMS_P1;PMS_P2;Temp;Humidity;BMP_temperature;BMP_pressure;BME280_temperature;BME280_humidity;BME280_pressure;Samples;Min_cycle;Max_cycle;Signal;HPM_P1;HPM_P2
2023/10/17 00:00:45;;;;;;;6.28;2.13;;;;;;;7.54;96.36;100066.72;12203908;19;20042;-80
2023/10/17 00:04:47;;;;;;;3.13;1.58;;;;;;;7.51;96.41;100063.59;12186077;19;20084;-82
2023/10/17 00:08:52;;;;;;;3.47;1.80;;;;;;;7.44;96.59;100054.59;12200265;19;20031;-82
2023/10/17 00:12:54;;;;;;;4.70;1.73;;;;;;;7.35;97.13;100047.66;12203989;19;20074;-81
2023/10/17 00:16:56;;;;;;;4.32;1.80;;;;;;;7.28;97.38;100042.25;12179514;19;20019;-81
2023/10/17 00:21:10;;;;;;;3.33;1.60;;;;;;;7.22;97.70;100038.50;12200405;19;20030;-80
2023/10/17 00:25:17;;;;;;;6.32;1.70;;;;;;;7.15;98.05;100037.72;12199283;19;20007;-79
2023/10/17 00:29:19;;;;;;;3.80;1.85;;;;;;;7.13;97.39;100045.31;12166817;19;20013;-79
2023/10/17 00:33:23;;;;;;;7.28;1.80;;;;;;;7.12;97.44;100038.16;12196003;19;20007;-81
2023/10/17 00:37:30;;;;;;;3.63;1.65;;;;;;;7.08;97.47;100029.53;12176968;19;20002;-80
2023/10/17 00:41:50;;;;;;;4.30;1.63;;;;;;;7.08;97.75;100031.44;12194732;19;20080;-81
2023/10/17 00:45:53;;;;;;;4.47;1.80;;;;;;;7.03;97.89;100017.56;12199183;19;20014;-80
2023/10/17 00:49:56;;;;;;;3.47;1.50;;;;;;;6.99;97.66;100017.19;12168698;19;20020;-81
2023/10/17 00:54:00;;;;;;;;;;;;;;;6.95;97.93;100023.31;12202907;19;20026;-81
2023/10/17 00:58:04;;;;;;;3.47;1.40;;;;;;;6.90;97.43;100017.66;12201175;19;19910;-80
2023/10/17 01:02:07;;;;;;;5.97;1.90;;;;;;;6.81;98.08;100026.16;12177244;19;20520;-81
2023/10/17 01:10:31;;;;;;;8.02;1.75;;;;;;;6.65;98.58;100048.56;12174230;19;20026;-82
2023/10/17 01:14:33;;;;;;;3.58;1.42;;;;;;;6.53;99.33;100044.81;12196855;19;20022;-81
2023/10/17 01:18:34;;;;;;;3.67;2.15;;;;;;;6.40;100.00;100037.53;12194557;19;20007;-82
2023/10/17 01:22:41;;;;;;;9.32;2.20;;;;;;;6.27;100.00;100035.66;12172065;19;20074;-80
2023/10/17 01:26:46;;;;;;;4.10;2.10;;;;;;;6.12;100.00;100051.50;12189670;19;20007;-82
2023/10/17 01:30:52;;;;;;;7.18;2.22;;;;;;;5.91;100.00;100044.38;12194435;19;20005;-81
2023/10/17 01:34:55;;;;;;;5.30;2.45;;;;;;;5.77;100.00;100029.91;12173995;19;20010;-81
2023/10/17 01:38:56;;;;;;;6.43;1.95;;;;;;;5.62;100.00;100032.00;12193797;19;20021;-82
2023/10/17 01:42:58;;;;;;;4.93;2.70;;;;;;;5.48;100.00;100023.81;12192417;19;20431;-80
2023/10/17 01:47:01;;;;;;;5.32;2.60;;;;;;;5.38;100.00;100019.81;12168967;19;20089;-80
2023/10/17 01:51:12;;;;;;;6.97;2.53;;;;;;;5.24;100.00;100021.75;12190696;19;20035;-80
2023/10/17 01:55:15;;;;;;;3.70;2.50;;;;;;;5.12;100.00;100010.59;12192153;19;20038;-81
2023/10/17 01:59:26;;;;;;;6.30;3.00;;;;;;;5.00;100.00;100013.09;12169824;19;20006;-80
2023/10/17 02:03:30;;;;;;;5.40;2.28;;;;;;;4.94;100.00;100026.75;12193342;19;20010;-80
2023/10/17 02:07:32;;;;;;;9.48;3.13;;;;;;;4.92;100.00;100042.50;12168883;19;20014;-80
2023/10/17 02:11:43;;;;;;;5.93;2.33;;;;;;;4.88;100.00;100038.47;12191067;19;20038;-80
2023/10/17 02:15:45;;;;;;;5.32;2.38;;;;;;;4.79;100.00;100043.31;12194849;19;20514;-80
2023/10/17 02:19:47;;;;;;;5.80;2.70;;;;;;;4.73;100.00;100055.03;12166671;19;20107;-81
2023/10/17 02:23:54;;;;;;;6.60;2.83;;;;;;;4.72;100.00;100050.63;12191293;19;20007;-79
2023/10/17 02:27:56;;;;;;;5.33;2.60;;;;;;;4.69;100.00;100038.22;12194874;19;20011;-79
2023/10/17 02:31:58;;;;;;;7.15;2.42;;;;;;;4.71;100.00;100030.69;12170630;19;20006;-81
2023/10/17 02:36:12;;;;;;;6.43;2.83;;;;;;;4.72;100.00;100015.97;12202977;19;20011;-81
2023/10/17 02:40:21;;;;;;;7.63;2.85;;;;;;;4.68;100.00;100022.09;12202096;19;20362;-82
2023/10/17 02:44:24;;;;;;;4.88;2.78;;;;;;;4.61;100.00;100004.81;12178886;19;20006;-80
2023/10/17 02:48:27;;;;;;;10.68;2.63;;;;;;;4.55;100.00;100004.63;12205702;19;20011;-80
2023/10/17 02:52:28;;;;;;;6.75;3.00;;;;;;;4.50;100.00;99987.19;12175963;19;20030;-80
2023/10/17 02:56:38;;;;;;;5.85;2.53;;;;;;;4.52;100.00;99994.13;12198634;19;20007;-82
2023/10/17 03:00:47;;;;;;;7.20;2.60;;;;;;;4.60;100.00;99997.69;12221156;19;20011;-81
2023/10/17 03:04:50;;;;;;;3.65;2.08;;;;;;;4.72;100.00;99999.59;12197483;19;20074;-81
2023/10/17 03:08:52;;;;;;;5.70;2.25;;;;;;;4.90;100.00;100006.34;12202571;19;20007;-80
2023/10/17 03:12:55;;;;;;;7.05;2.08;;;;;;;5.11;100.00;100006.16;12202308;19;20007;-79
2023/10/17 03:16:57;;;;;;;4.35;2.05;;;;;;;5.24;100.00;100006.19;12179412;19;20010;-79
2023/10/17 03:21:00;;;;;;;5.60;2.30;;;;;;;5.33;100.00;100001.34;12200444;19;21306;-81
2023/10/17 03:25:04;;;;;;;4.53;2.03;;;;;;;5.41;100.00;99998.41;12214448;19;20020;-80
2023/10/17 03:29:15;;;;;;;3.85;2.05;;;;;;;5.52;100.00;99993.34;12189961;19;20011;-81
2023/10/17 03:33:26;;;;;;;6.10;2.00;;;;;;;5.63;100.00;99976.28;12210604;19;20007;-81
2023/10/17 03:37:29;;;;;;;4.65;2.25;;;;;;;5.75;100.00;99960.91;12188324;19;20469;-80
2023/10/17 03:41:32;;;;;;;5.30;2.35;;;;;;;5.87;100.00;99961.91;12203869;19;20030;-79
2023/10/17 03:45:43;;;;;;;5.07;2.05;;;;;;;5.99;100.00;99953.06;12198828;19;20003;-82
2023/10/17 03:49:48;;;;;;;5.27;2.23;;;;;;;6.10;100.00;99966.09;12181676;19;20022;-82
2023/10/17 03:53:50;;;;;;;5.57;2.53;;;;;;;6.20;100.00;99968.34;12200961;19;20010;-83
2023/10/17 03:57:52;;;;;;;;;;;;;;;6.23;100.00;99962.44;12203760;19;20017;-80
2023/10/17 04:01:54;;;;;;;2.70;1.90;;;;;;;6.30;100.00;99964.06;12180450;19;19915;-81
2023/10/17 04:06:03;;;;;;;;;;;;;;;6.28;100.00;99965.38;12200004;19;20010;-80
2023/10/17 04:10:20;;;;;;;5.63;2.35;;;;;;;6.33;100.00;99969.09;12200653;19;20423;-81
2023/10/17 04:15:08;;;;;;;3.22;2.03;;;;;;;6.38;100.00;99971.19;12179606;19;21275;-81
2023/10/17 04:18:48;;;;;;;5.57;2.17;;;;;;;6.37;100.00;99975.84;12200384;19;20010;-81
2023/10/17 04:22:51;;;;;;;4.60;1.83;;;;;;;6.44;100.00;99964.00;12183182;19;20015;-83
2023/10/17 04:27:18;;;;;;;;;;;;;;;6.48;100.00;99959.75;12199121;19;20006;-83
2023/10/17 04:31:26;;;;;;;6.22;2.08;;;;;;;6.49;100.00;99966.94;12199759;19;21351;-82
2023/10/17 04:35:27;;;;;;;4.25;2.10;;;;;;;6.50;100.00;99974.09;12178927;19;20643;-82
2023/10/17 04:43:48;;;;;;;4.45;2.55;;;;;;;6.50;100.00;99985.03;12179635;19;20034;-80
2023/10/17 04:48:11;;;;;;;6.72;2.72;;;;;;;6.46;100.00;100002.97;12200894;19;20010;-81
2023/10/17 04:52:40;;;;;;;6.47;2.22;;;;;;;6.45;100.00;100009.47;12199197;19;20006;-81
2023/10/17 04:56:53;;;;;;;7.82;2.17;;;;;;;6.39;100.00;100006.56;12176902;19;20032;-81
2023/10/17 05:09:26;;;;;;;4.05;2.20;;;;;;;6.22;100.00;100016.34;12200658;19;20014;-83
2023/10/17 06:18:48;;;;;;;14.55;8.93;;;;;;;5.54;100.00;100004.91;12192491;19;20007;-81
2023/10/17 06:31:43;;;;;;;8.00;3.28;;;;;;;5.61;100.00;100020.22;12166913;19;20010;-81
2023/10/17 06:35:55;;;;;;;6.80;3.05;;;;;;;5.69;100.00;100011.81;12198020;19;20006;-82
2023/10/17 06:39:58;;;;;;;8.10;5.03;;;;;;;5.79;100.00;100007.78;12199111;19;20062;-81
2023/10/17 06:44:05;;;;;;;6.60;3.40;;;;;;;5.83;100.00;100009.03;12179380;19;21197;-81
2023/10/17 06:48:08;;;;;;;4.13;2.67;;;;;;;5.89;100.00;100010.94;12199827;19;20092;-81
2023/10/17 06:56:17;;;;;;;11.82;3.70;;;;;;;6.13;100.00;100003.94;12176915;19;20059;-81
2023/10/17 07:00:24;;;;;;;5.93;3.05;;;;;;;6.26;100.00;99995.66;12197739;19;20010;-81
2023/10/17 07:04:29;;;;;;;6.60;2.78;;;;;;;6.41;100.00;100002.78;12184133;19;20014;-81
2023/10/17 07:08:36;;;;;;;6.82;2.45;;;;;;;6.56;100.00;100006.06;12194476;19;20031;-81
2023/10/17 07:12:38;;;;;;;7.85;2.92;;;;;;;6.72;100.00;99993.75;12192045;19;20022;-81
2023/10/17 07:21:28;;;;;;;8.10;3.10;;;;;;;7.02;100.00;100007.66;12192808;19;20071;-81
2023/10/17 07:25:14;;;;;;;9.25;3.22;;;;;;;7.19;100.00;100010.69;12206006;19;20015;-81
2023/10/17 07:29:16;;;;;;;7.65;2.67;;;;;;;7.40;100.00;100010.31;12195589;19;20006;-81
2023/10/17 07:33:18;;;;;;;6.25;2.20;;;;;;;7.57;100.00;99991.38;12222411;19;20851;-82
2023/10/17 07:41:36;;;;;;;8.23;2.80;;;;;;;7.79;100.00;100000.00;12177458;19;20006;-82
2023/10/17 07:45:41;;;;;;;5.70;2.70;;;;;;;7.97;100.00;99988.22;12207568;19;20042;-82
2023/10/17 07:49:43;;;;;;;7.05;3.03;;;;;;;8.05;99.16;99985.16;12185791;19;20657;-82
2023/10/17 07:53:45;;;;;;;6.63;2.60;;;;;;;8.15;97.04;99988.22;12204855;19;20413;-83
2023/10/17 07:57:52;;;;;;;5.30;2.42;;;;;;;8.25;96.62;99986.84;12206281;19;20010;-82
2023/10/17 08:01:59;;;;;;;6.35;2.40;;;;;;;8.33;95.29;99989.25;12186181;19;20011;-82
2023/10/17 08:10:10;;;;;;;5.43;2.80;;;;;;;8.38;93.60;100015.00;12204552;19;20014;-82
2023/10/17 08:14:16;;;;;;;6.85;2.92;;;;;;;8.44;92.01;100024.22;12178851;19;20021;-83
2023/10/17 08:18:22;;;;;;;6.00;3.08;;;;;;;8.46;92.80;100043.22;12201265;19;20002;-82
2023/10/17 08:22:27;;;;;;;4.68;3.42;;;;;;;8.55;93.26;100034.44;12195951;19;20007;-82
2023/10/17 08:26:39;;;;;;;7.43;3.25;;;;;;;8.78;93.25;100030.97;12178275;19;20039;-81
2023/10/17 08:30:45;;;;;;;7.50;3.70;;;;;;;8.96;93.19;100030.06;12201104;19;20550;-82
2023/10/17 08:35:36;;;;;;;6.15;3.22;;;;;;;9.15;92.11;100022.59;12182452;19;20013;-82
2023/10/17 08:39:51;;;;;;;9.50;3.47;;;;;;;9.29;91.16;100012.22;12204439;19;20448;-81
2023/10/17 08:43:49;;;;;;;7.75;3.33;;;;;;;9.33;90.04;99999.66;12190844;19;20394;-81
2023/10/17 08:48:00;;;;;;;8.63;3.10;;;;;;;9.44;89.22;99998.84;12199319;19;20354;-81
2023/10/17 08:52:03;;;;;;;4.70;2.78;;;;;;;9.49;88.23;100014.66;12198533;19;20016;-81
2023/10/17 08:56:07;;;;;;;6.60;3.53;;;;;;;9.54;87.81;100028.50;12180238;19;20027;-82
2023/10/17 09:04:13;;;;;;;7.50;3.10;;;;;;;9.64;87.22;100005.91;12200038;19;20003;-82
2023/10/17 09:08:22;;;;;;;6.28;3.42;;;;;;;9.83;86.30;100023.97;12174122;19;20030;-81
2023/10/17 09:12:24;;;;;;;7.85;3.83;;;;;;;9.90;85.06;100029.34;12199203;19;20081;-81
2023/10/17 09:16:34;;;;;;;10.13;3.55;;;;;;;9.91;86.33;100022.78;12186895;19;20018;-81
2023/10/17 09:20:37;;;;;;;8.13;2.92;;;;;;;10.04;85.92;100003.25;12196295;19;20865;-81
2023/10/17 09:24:40;;;;;;;7.50;3.30;;;;;;;10.12;86.30;100016.66;12195803;19;20018;-80
2023/10/17 09:28:42;;;;;;;5.68;3.38;;;;;;;10.23;85.20;100010.28;12176651;19;20032;-80
2023/10/17 09:32:44;;;;;;;8.52;3.90;;;;;;;10.00;84.63;100005.66;12195282;19;20031;-80
2023/10/17 09:36:47;;;;;;;6.28;3.25;;;;;;;10.08;85.74;100003.59;12196621;19;20011;-80
2023/10/17 09:40:51;;;;;;;7.90;2.97;;;;;;;10.10;85.54;99990.44;12174657;19;20025;-80
2023/10/17 09:45:07;;;;;;;6.95;3.55;;;;;;;10.18;84.37;99984.56;12191725;19;20440;-80
2023/10/17 09:49:32;;;;;;;8.63;3.80;;;;;;;10.00;83.83;99989.13;12195590;19;20010;-80
2023/10/17 09:53:35;;;;;;;11.15;3.45;;;;;;;9.80;84.67;99984.00;12173637;19;20028;-81
2023/10/17 09:57:41;;;;;;;6.15;3.80;;;;;;;9.80;84.87;100002.44;12197970;19;20564;-80
2023/10/17 10:01:49;;;;;;;7.18;3.30;;;;;;;9.82;85.76;99994.78;12177357;19;20011;-80
2023/10/17 10:05:54;;;;;;;7.75;3.47;;;;;;;9.76;84.92;100004.84;12194843;19;20003;-80
2023/10/17 10:09:56;;;;;;;7.32;3.58;;;;;;;9.75;84.75;100003.16;12193501;19;20041;-79
2023/10/17 10:14:11;;;;;;;10.93;3.92;;;;;;;9.82;85.42;100006.63;12172639;19;21520;-79
2023/10/17 10:18:14;;;;;;;7.15;3.60;;;;;;;10.02;86.15;100013.66;12194982;19;20054;-79
2023/10/17 10:22:18;;;;;;;7.63;3.25;;;;;;;10.25;84.38;100010.88;12191524;19;20010;-80
2023/10/17 10:26:19;;;;;;;8.10;3.95;;;;;;;10.24;84.48;100006.44;12167413;19;20022;-79
2023/10/17 10:30:35;;;;;;;9.52;3.22;;;;;;;10.48;84.29;99999.00;12193311;19;20006;-79
2023/10/17 10:45:57;;;;;;;5.35;2.75;;;;;;;10.54;82.69;99955.00;12077174;19;2004388;-79
2023/10/17 10:50:11;;;;;;;7.55;3.17;;;;;;;10.62;82.66;99968.38;12162966;19;20503;-79
2023/10/17 10:54:24;;;;;;;7.90;3.80;;;;;;;10.75;82.12;99973.59;12188863;19;20063;-80
2023/10/17 11:03:01;;;;;;;8.43;3.70;;;;;;;11.00;80.54;99948.41;12203552;19;20014;-79
2023/10/17 11:07:23;;;;;;;5.25;3.17;;;;;;;10.85;79.88;99954.47;12201717;19;20014;-79
2023/10/17 11:11:25;;;;;;;6.10;3.53;;;;;;;10.83;80.43;99937.38;12187778;19;20007;-79
2023/10/17 11:15:32;;;;;;;6.05;3.20;;;;;;;10.97;80.61;99914.97;12198434;19;20824;-79
2023/10/17 11:19:34;;;;;;;9.23;4.13;;;;;;;10.98;78.81;99917.50;12177754;19;20011;-79
2023/10/17 11:23:47;;;;;;;4.53;2.90;;;;;;;11.04;79.48;99915.66;12199438;19;20018;-79
2023/10/17 11:27:53;;;;;;;10.30;3.80;;;;;;;11.18;78.67;99904.06;12199659;19;20027;-79
2023/10/17 11:31:58;;;;;;;9.15;3.80;;;;;;;11.32;78.08;99892.66;12181828;19;20006;-79
2023/10/17 11:36:12;;;;;;;8.07;3.67;;;;;;;11.24;76.64;99879.28;12235454;19;19998;-79
2023/10/17 11:40:47;;;;;;;8.23;2.72;;;;;;;11.29;76.31;99904.19;12250184;19;20068;-79
2023/10/17 11:44:53;;;;;;;7.13;3.30;;;;;;;11.46;76.79;99904.19;12232006;19;19999;-79
2023/10/17 11:49:30;;;;;;;5.35;2.63;;;;;;;11.62;74.39;99889.50;12252677;19;20001;-79
2023/10/17 11:53:33;;;;;;;5.95;3.08;;;;;;;11.48;70.47;99875.25;12223389;19;20045;-79
2023/10/17 11:57:35;;;;;;;6.75;3.05;;;;;;;11.49;72.59;99879.69;12243762;19;20005;-79
2023/10/17 12:01:37;;;;;;;7.40;2.60;;;;;;;11.54;73.04;99876.13;12224643;19;20003;-79
2023/10/17 12:05:39;;;;;;;6.57;2.50;;;;;;;11.44;72.59;99873.25;12228891;19;20003;-80
2023/10/17 12:09:41;;;;;;;3.67;2.25;;;;;;;11.38;73.21;99870.41;12207241;19;20010;-80
2023/10/17 12:13:43;;;;;;;8.53;3.17;;;;;;;11.39;73.46;99861.06;12188425;19;20017;-80
2023/10/17 12:17:44;;;;;;;4.90;2.93;;;;;;;11.43;74.30;99855.84;12210844;19;20267;-81
2023/10/17 12:21:50;;;;;;;6.97;2.60;;;;;;;11.66;72.38;99874.13;12195255;19;20019;-79
2023/10/17 12:25:52;;;;;;;8.13;3.45;;;;;;;12.00;72.31;99874.84;12174961;19;20612;-79
2023/10/17 12:29:53;;;;;;;6.45;2.90;;;;;;;12.65;71.49;99883.28;12208510;19;20007;-80
2023/10/17 12:33:55;;;;;;;7.53;3.50;;;;;;;13.48;68.84;99871.81;12211545;19;20462;-80
2023/10/17 12:37:58;;;;;;;5.20;2.30;;;;;;;14.54;65.85;99865.03;12188441;19;20019;-79
2023/10/17 12:42:00;;;;;;;4.10;3.00;;;;;;;15.50;59.46;99864.19;12206730;19;20014;-80
2023/10/17 12:46:02;;;;;;;7.93;3.00;;;;;;;16.40;54.94;99838.25;12198941;19;20002;-79
2023/10/17 12:50:12;;;;;;;5.53;2.90;;;;;;;17.34;50.29;99837.25;12186606;19;20002;-80
2023/10/17 12:54:13;;;;;;;8.10;2.90;;;;;;;17.51;50.95;99845.13;12197280;19;20006;-79
2023/10/17 12:58:19;;;;;;;5.00;3.20;;;;;;;16.84;49.27;99837.41;12205920;19;20002;-81
2023/10/17 13:02:24;;;;;;;6.85;3.10;;;;;;;15.60;50.54;99834.72;12180875;19;20865;-80
2023/10/17 13:06:26;;;;;;;5.13;3.00;;;;;;;15.01;53.19;99848.13;12205501;19;20011;-79
2023/10/17 13:10:30;;;;;;;;;;;;;;;14.44;54.46;99849.19;12188447;19;20077;-79
2023/10/17 13:14:31;;;;;;;7.05;3.47;;;;;;;14.08;55.74;99843.56;12206940;19;19911;-79
2023/10/17 13:18:40;;;;;;;5.43;3.10;;;;;;;13.86;56.24;99834.59;12202456;19;20078;-79
2023/10/17 13:22:46;;;;;;;5.47;2.70;;;;;;;13.68;57.35;99831.22;12188655;19;20006;-80
2023/10/17 13:26:48;;;;;;;6.07;2.70;;;;;;;13.45;58.05;99835.25;12217350;19;20011;-80
2023/10/17 13:30:50;;;;;;;7.55;2.83;;;;;;;13.13;58.90;99831.69;12222198;19;20017;-80
2023/10/17 13:34:53;;;;;;;5.65;2.95;;;;;;;12.83;60.35;99833.13;12193077;19;20010;-79
2023/10/17 13:38:54;;;;;;;6.72;2.75;;;;;;;12.66;61.23;99827.72;12220128;19;20021;-80
2023/10/17 13:43:04;;;;;;;5.63;3.13;;;;;;;12.50;61.84;99829.53;12224563;19;20011;-80
2023/10/17 13:47:07;;;;;;;4.88;2.83;;;;;;;12.49;62.26;99827.00;12203519;19;20056;-80
2023/10/17 13:51:09;;;;;;;4.38;2.80;;;;;;;12.38;63.23;99822.50;12217155;19;21332;-80
2023/10/17 13:55:14;;;;;;;7.95;3.33;;;;;;;12.25;63.86;99827.34;12219658;19;20006;-80
2023/10/17 13:59:19;;;;;;;4.03;2.60;;;;;;;12.28;63.54;99823.22;12193294;19;20007;-81
2023/10/17 14:03:25;;;;;;;7.40;2.72;;;;;;;12.19;64.63;99811.78;12214900;19;20010;-81
2023/10/17 14:07:30;;;;;;;9.82;2.53;;;;;;;12.15;64.98;99810.66;12180194;19;20067;-82
2023/10/17 14:11:32;;;;;;;7.32;2.30;;;;;;;12.14;64.58;99799.88;12193767;19;20006;-81
2023/10/17 14:15:38;;;;;;;5.57;2.53;;;;;;;12.17;64.56;99799.38;12198759;19;20017;-80
2023/10/17 14:19:44;;;;;;;5.03;2.60;;;;;;;12.22;64.15;99794.69;12172861;19;20470;-81
2023/10/17 14:23:57;;;;;;;4.57;2.80;;;;;;;12.27;64.83;99786.47;12191884;19;20014;-81
2023/10/17 14:27:59;;;;;;;4.93;2.58;;;;;;;12.37;64.21;99794.00;12187455;19;20014;-80
2023/10/17 14:32:02;;;;;;;6.22;2.15;;;;;;;12.58;64.02;99796.97;12181850;19;20050;-81
2023/10/17 14:36:05;;;;;;;7.00;2.50;;;;;;;12.80;63.80;99791.34;12201112;19;20469;-81
2023/10/17 14:40:11;;;;;;;5.90;2.30;;;;;;;12.91;63.88;99799.47;12207138;19;20021;-80
2023/10/17 14:44:15;;;;;;;3.42;2.30;;;;;;;12.95;63.40;99788.69;12176622;19;20070;-80
2023/10/17 14:48:17;;;;;;;6.68;2.60;;;;;;;12.97;62.72;99781.81;12194759;19;20019;-80
2023/10/17 14:52:19;;;;;;;3.45;2.28;;;;;;;13.00;61.72;99783.22;12190219;19;20038;-79
2023/10/17 14:56:27;;;;;;;6.20;2.45;;;;;;;13.04;61.56;99781.56;12168715;19;20019;-81
2023/10/17 15:00:30;;;;;;;4.55;2.15;;;;;;;12.97;61.20;99767.97;12189673;19;20046;-80
2023/10/17 15:04:33;;;;;;;4.13;2.08;;;;;;;12.96;60.53;99766.28;12168914;19;20879;-81
2023/10/17 15:08:36;;;;;;;7.72;2.35;;;;;;;12.77;60.75;99767.81;12192988;19;20019;-80
2023/10/17 15:12:43;;;;;;;4.70;2.42;;;;;;;12.63;61.48;99766.59;12193236;19;19999;-80
2023/10/17 15:16:46;;;;;;;3.88;1.73;;;;;;;12.51;62.24;99764.03;12162185;19;20032;-80
2023/10/17 15:20:48;;;;;;;3.42;1.77;;;;;;;12.44;63.04;99768.94;12185268;19;20007;-78
2023/10/17 15:24:50;;;;;;;3.90;1.70;;;;;;;12.39;63.53;99778.00;12187580;19;20042;-82
2023/10/17 15:28:53;;;;;;;4.82;1.90;;;;;;;12.26;63.37;99767.41;12163679;19;20018;-81
2023/10/17 15:32:55;;;;;;;4.55;2.10;;;;;;;12.18;63.50;99765.13;12194394;19;20003;-81
2023/10/17 15:36:57;;;;;;;3.65;1.85;;;;;;;12.04;64.06;99757.22;12189755;19;20121;-81
2023/10/17 15:41:02;;;;;;;4.37;2.33;;;;;;;11.91;65.11;99765.13;12176853;19;20010;-81
2023/10/17 15:45:05;;;;;;;4.90;1.98;;;;;;;11.77;65.89;99761.88;12202552;19;20093;-80
2023/10/17 15:49:08;;;;;;;3.08;1.50;;;;;;;11.59;67.23;99752.84;12202373;19;20375;-80
2023/10/17 15:53:10;;;;;;;3.00;1.75;;;;;;;11.43;69.61;99758.47;12173902;19;20019;-80
2023/10/17 15:57:14;;;;;;;4.93;2.42;;;;;;;11.22;72.06;99760.13;12197470;19;20545;-80
2023/10/17 16:01:15;;;;;;;5.50;2.30;;;;;;;10.99;73.78;99752.91;12201579;19;20010;-80
2023/10/17 16:05:17;;;;;;;2.15;1.45;;;;;;;10.77;75.67;99761.09;12178965;19;20029;-78
2023/10/17 16:09:21;;;;;;;5.82;2.30;;;;;;;10.58;77.92;99757.78;12198056;19;20033;-80
2023/10/17 16:13:24;;;;;;;6.28;3.10;;;;;;;10.37;79.65;99760.22;12200990;19;20085;-80
2023/10/17 16:17:26;;;;;;;11.02;2.55;;;;;;;10.18;81.22;99758.75;12168882;19;20037;-79
2023/10/17 16:21:28;;;;;;;9.73;3.97;;;;;;;9.95;82.92;99760.53;12199618;19;20627;-80
2023/10/17 16:25:32;;;;;;;5.45;2.70;;;;;;;9.76;85.50;99759.09;12175645;19;20013;-80
2023/10/17 16:29:34;;;;;;;6.00;2.42;;;;;;;9.56;85.65;99757.59;12198556;19;20014;-80
2023/10/17 16:33:36;;;;;;;58.87;34.37;;;;;;;9.35;86.72;99761.03;12202513;19;20010;-80
2023/10/17 16:37:38;;;;;;;30.42;18.48;;;;;;;9.19;87.93;99756.25;12179083;19;20023;-79
2023/10/17 16:41:40;;;;;;;584.28;231.73;;;;;;;9.02;89.76;99757.03;12204008;19;20006;-80
2023/10/17 16:45:48;;;;;;;114.47;49.90;;;;;;;8.86;91.40;99757.72;12201590;19;20480;-80
2023/10/17 16:49:50;;;;;;;19.67;11.73;;;;;;;8.71;92.61;99754.63;12181389;19;20085;-81
2023/10/17 16:53:52;;;;;;;9.93;5.35;;;;;;;8.57;93.24;99745.81;12199002;19;20003;-80
2023/10/17 16:57:54;;;;;;;7.63;6.03;;;;;;;8.48;93.26;99749.97;12205592;19;20007;-81
2023/10/17 17:01:55;;;;;;;9.75;4.00;;;;;;;8.40;95.33;99753.91;12183385;19;20078;-81
2023/10/17 17:05:58;;;;;;;9.80;3.47;;;;;;;8.33;95.25;99764.97;12200241;19;21179;-79
2023/10/17 17:10:00;;;;;;;6.60;3.73;;;;;;;8.25;95.96;99757.09;12199575;19;20033;-77
2023/10/17 17:14:05;;;;;;;7.28;3.25;;;;;;;8.17;97.05;99750.00;12181249;19;20002;-82
2023/10/17 17:18:07;;;;;;;5.70;3.63;;;;;;;8.10;97.94;99754.78;12203651;19;20021;-78
2023/10/17 17:22:29;;;;;;;5.32;3.08;;;;;;;8.10;98.28;99749.28;12180582;19;20031;-81
2023/10/17 17:26:31;;;;;;;4.90;2.30;;;;;;;8.07;97.72;99754.44;12200210;19;20486;-80
2023/10/17 17:30:35;;;;;;;3.88;2.30;;;;;;;8.14;96.62;99755.16;12203770;19;20055;-81
2023/10/17 17:34:38;;;;;;;9.05;3.75;;;;;;;8.16;95.69;99756.59;12179992;19;20026;-80
2023/10/17 17:38:40;;;;;;;7.45;2.20;;;;;;;8.11;97.48;99758.34;12202776;19;20006;-80
2023/10/17 17:42:42;;;;;;;4.80;1.83;;;;;;;8.06;96.42;99767.31;12203489;19;20397;-80
2023/10/17 17:46:44;;;;;;;5.53;2.47;;;;;;;8.05;97.23;99768.38;12179786;19;20030;-80
2023/10/17 17:50:47;;;;;;;7.45;2.58;;;;;;;8.01;97.72;99780.88;12201980;19;20010;-79
2023/10/17 17:54:48;;;;;;;2.88;1.60;;;;;;;7.96;99.85;99780.75;12200616;19;20017;-80
2023/10/17 17:58:52;;;;;;;6.60;5.65;;;;;;;7.87;100.00;99782.16;12177635;19;21658;-80
2023/10/17 18:02:54;;;;;;;5.10;2.83;;;;;;;7.75;100.00;99773.88;12198199;19;20002;-79
2023/10/17 18:06:57;;;;;;;8.00;4.90;;;;;;;7.67;100.00;99768.69;12195764;19;20651;-80
2023/10/17 18:11:01;;;;;;;6.38;3.97;;;;;;;7.62;100.00;99763.94;12174545;19;20002;-79
2023/10/17 18:15:04;;;;;;;;;;;;;;;7.52;100.00;99760.88;12194132;19;20015;-79
2023/10/17 18:19:08;;;;;;;4.82;2.95;;;;;;;7.45;100.00;99760.16;12197179;19;20315;-79
2023/10/17 18:23:14;;;;;;;7.10;3.30;;;;;;;7.39;100.00;99764.66;12167800;19;20398;-80
2023/10/17 18:27:16;;;;;;;6.38;2.83;;;;;;;7.33;100.00;99760.09;12196264;19;20023;-80
2023/10/17 18:31:19;;;;;;;4.27;2.17;;;;;;;7.27;100.00;99753.63;12198108;19;20018;-79
2023/10/17 18:35:20;;;;;;;4.40;2.70;;;;;;;7.27;100.00;99748.13;12175016;19;20026;-80
2023/10/17 18:39:23;;;;;;;27.90;10.52;;;;;;;7.30;100.00;99744.94;12197053;19;20006;-80
2023/10/17 18:43:29;;;;;;;11.77;6.07;;;;;;;7.36;100.00;99739.59;12203488;19;20003;-81
2023/10/17 18:47:31;;;;;;;8.48;4.43;;;;;;;7.30;100.00;99730.41;12174963;19;20013;-81
2023/10/17 18:51:37;;;;;;;8.73;4.40;;;;;;;7.24;100.00;99720.34;12189581;19;20038;-81
2023/10/17 18:55:39;;;;;;;7.45;4.45;;;;;;;7.23;100.00;99724.16;12167250;19;20010;-79
2023/10/17 18:59:41;;;;;;;7.60;4.28;;;;;;;7.27;100.00;99728.94;12188293;19;20046;-79
2023/10/17 19:03:44;;;;;;;8.23;3.85;;;;;;;7.27;100.00;99723.47;12192117;19;20003;-79
2023/10/17 19:07:47;;;;;;;4.72;2.47;;;;;;;7.27;100.00;99730.84;12172132;19;20021;-80
2023/10/17 19:11:49;;;;;;;4.22;1.90;;;;;;;7.26;100.00;99732.75;12190083;19;20007;-80
2023/10/17 19:15:53;;;;;;;7.80;2.23;;;;;;;7.24;100.00;99734.06;12194608;19;20014;-79
2023/10/17 19:19:55;;;;;;;3.92;1.98;;;;;;;7.23;100.00;99733.22;12177228;19;20003;-79
2023/10/17 19:23:57;;;;;;;4.18;1.90;;;;;;;7.18;100.00;99738.56;12192336;19;20038;-79
2023/10/17 19:28:02;;;;;;;4.57;2.25;;;;;;;7.17;100.00;99738.75;12199763;19;20013;-80
2023/10/17 19:32:04;;;;;;;5.35;2.10;;;;;;;7.12;100.00;99733.16;12181953;19;20014;-79
2023/10/17 19:36:06;;;;;;;4.07;2.37;;;;;;;7.08;100.00;99730.03;12213270;19;20070;-80
2023/10/17 19:40:08;;;;;;;8.85;3.35;;;;;;;7.03;100.00;99738.09;12210121;19;20026;-79
2023/10/17 19:44:12;;;;;;;6.20;2.70;;;;;;;6.99;100.00;99732.25;12178783;19;20010;-79
2023/10/17 19:48:14;;;;;;;3.50;2.27;;;;;;;6.95;100.00;99727.44;12201124;19;20003;-78
2023/10/17 19:52:16;;;;;;;7.73;2.80;;;;;;;6.94;100.00;99717.56;12197201;19;20006;-79
2023/10/17 19:56:18;;;;;;;4.53;2.63;;;;;;;6.95;100.00;99705.53;12174315;19;20011;-80
2023/10/17 20:00:23;;;;;;;5.18;2.30;;;;;;;6.99;100.00;99704.84;12198160;19;20443;-80
2023/10/17 20:04:27;;;;;;;5.53;2.63;;;;;;;7.02;100.00;99706.28;12195447;19;20021;-81
2023/10/17 20:08:29;;;;;;;4.25;2.58;;;;;;;7.05;100.00;99700.38;12180163;19;20017;-80
2023/10/17 20:12:32;;;;;;;5.73;2.50;;;;;;;7.11;100.00;99704.94;12198153;19;20006;-81
2023/10/17 20:16:34;;;;;;;7.13;2.90;;;;;;;7.22;100.00;99693.16;12170727;19;20010;-80
2023/10/17 20:20:40;;;;;;;8.20;2.50;;;;;;;7.27;100.00;99678.78;12194683;19;20025;-80
2023/10/17 20:24:42;;;;;;;3.78;2.30;;;;;;;7.29;100.00;99677.47;12196939;19;20010;-81
2023/10/17 20:28:46;;;;;;;4.72;2.78;;;;;;;7.43;100.00;99672.63;12183018;19;20010;-80
2023/10/17 20:32:48;;;;;;;3.40;2.10;;;;;;;7.56;100.00;99677.13;12208187;19;20127;-80
2023/10/17 20:36:50;;;;;;;6.93;2.87;;;;;;;7.68;99.07;99672.50;12199809;19;20017;-80
2023/10/17 20:41:02;;;;;;;4.30;2.42;;;;;;;7.77;97.65;99664.75;12178572;19;20011;-81
2023/10/17 20:45:09;;;;;;;4.70;2.33;;;;;;;7.83;97.10;99665.75;12201235;19;20029;-80
2023/10/17 20:49:12;;;;;;;6.28;2.65;;;;;;;7.82;96.89;99653.06;12204928;19;20843;-80
2023/10/17 20:53:14;;;;;;;4.32;1.80;;;;;;;7.87;95.92;99658.69;12179039;19;20013;-80
2023/10/17 20:57:16;;;;;;;5.35;2.78;;;;;;;7.91;95.53;99663.50;12202601;19;20007;-80
2023/10/17 21:01:20;;;;;;;9.60;2.90;;;;;;;7.89;95.74;99662.88;12195958;19;21192;-81
2023/10/17 21:05:21;;;;;;;;;;;;;;;7.84;96.02;99653.69;12175670;19;20093;-82
2023/10/17 21:09:23;;;;;;;8.50;3.30;;;;;;;7.73;96.60;99645.22;12197570;19;19922;-82